Time;durP1;ratioP1;P1;durP2;ratioP2;P2;SDS_P1;SDS_P2;PMS_P1;PMS_P2;Temp;Humidity;BMP_temperature;BMP_pressure;BME280_temperature;BME280_humidity;BME280_pressure;Samples;Min_cycle;Max_cycle;Signal;HPM_P1;HPM_P2
2022/09/26 00:01:41;;;;;;;4.30;2.00;;;19.80;72.00;;;;;;5071872;28;20082;-57
2022/09/26 00:04:41;;;;;;;5.70;2.10;;;19.80;71.80;;;;;;5071945;28;20016;-57
2022/09/26 00:07:10;;;;;;;5.90;2.10;;;19.70;71.40;;;;;;5039064;28;20120;-57
2022/09/26 00:09:38;;;;;;;6.88;2.15;;;19.70;71.20;;;;;;5057290;28;20105;-57
2022/09/26 00:12:06;;;;;;;7.32;2.35;;;19.70;71.40;;;;;;5051406;28;20036;-56
2022/09/26 00:14:34;;;;;;;5.15;1.95;;;19.70;71.50;;;;;;5051846;28;20017;-56
2022/09/26 00:17:02;;;;;;;6.78;2.20;;;19.70;71.50;;;;;;5051649;28;20029;-57
2022/09/26 00:19:30;;;;;;;6.93;2.10;;;19.70;71.40;;;;;;5064462;28;20422;-57
2022/09/26 00:21:59;;;;;;;5.78;2.20;;;19.70;71.20;;;;;;5072214;28;20020;-56
2022/09/26 00:24:27;;;;;;;6.35;2.00;;;19.70;71.00;;;;;;5072103;28;20017;-56
2022/09/26 00:26:55;;;;;;;8.25;2.17;;;19.70;70.80;;;;;;5070535;28;20036;-56
2022/09/26 00:29:23;;;;;;;5.05;1.98;;;19.70;70.80;;;;;;5057658;28;20022;-56
2022/09/26 00:31:52;;;;;;;5.70;1.85;;;19.70;70.80;;;;;;5066085;28;20077;-56
2022/09/26 00:34:20;;;;;;;7.10;2.10;;;19.70;71.20;;;;;;5070080;28;20178;-56
2022/09/26 00:36:49;;;;;;;7.78;2.22;;;19.70;71.30;;;;;;5070019;28;20024;-56
2022/09/26 00:39:17;;;;;;;5.60;2.17;;;19.70;71.40;;;;;;5059146;28;20036;-56
2022/09/26 00:41:46;;;;;;;6.97;2.05;;;19.70;71.40;;;;;;5049885;28;20033;-57
2022/09/26 00:44:48;;;;;;;6.30;1.92;;;19.70;71.30;;;;;;5066240;28;20037;-56
2022/09/26 00:47:36;;;;;;;5.00;1.65;;;19.70;71.40;;;;;;5066276;28;20165;-55
2022/09/26 00:50:14;;;;;;;6.30;2.28;;;19.70;71.60;;;;;;5066322;28;20119;-55
2022/09/26 00:52:48;;;;;;;6.53;2.00;;;19.70;71.30;;;;;;5069533;28;20040;-56
2022/09/26 00:55:20;;;;;;;7.15;2.10;;;19.70;71.10;;;;;;5069730;28;20060;-56
2022/09/26 00:58:03;;;;;;;6.85;2.28;;;19.70;70.80;;;;;;5070615;28;20771;-56
2022/09/26 01:00:32;;;;;;;7.00;2.70;;;19.70;70.60;;;;;;5049736;28;20441;-56
2022/09/26 01:03:01;;;;;;;7.07;2.20;;;19.70;70.50;;;;;;5050747;28;20182;-57
2022/09/26 01:05:30;;;;;;;6.05;2.15;;;19.70;70.80;;;;;;5050476;28;20047;-56
2022/09/26 01:08:00;;;;;;;5.65;2.00;;;19.70;71.10;;;;;;5066269;28;20028;-56
2022/09/26 01:10:29;;;;;;;9.07;2.20;;;19.70;70.80;;;;;;5070623;28;20044;-56
2022/09/26 01:12:59;;;;;;;5.72;2.05;;;19.70;70.70;;;;;;5069221;28;20159;-56
2022/09/26 01:15:27;;;;;;;6.10;2.20;;;19.70;70.70;;;;;;5071389;28;20032;-56
2022/09/26 01:17:56;;;;;;;8.77;2.40;;;19.70;70.90;;;;;;5070847;28;20476;-56
2022/09/26 01:20:32;;;;;;;4.75;1.90;;;19.70;70.80;;;;;;5055287;28;20039;-56
2022/09/26 01:23:22;;;;;;;6.78;2.05;;;19.70;71.00;;;;;;5069130;28;20032;-56
2022/09/26 01:26:12;;;;;;;6.05;1.95;;;19.70;71.20;;;;;;5069324;28;20550;-56
2022/09/26 01:28:44;;;;;;;6.75;2.13;;;19.70;71.20;;;;;;5065368;28;20032;-57
2022/09/26 01:31:24;;;;;;;5.88;2.30;;;19.70;71.30;;;;;;5050334;28;20044;-56
2022/09/26 01:34:19;;;;;;;6.10;1.95;;;19.70;71.40;;;;;;5050330;28;20032;-56
2022/09/26 01:37:13;;;;;;;6.32;1.90;;;19.70;71.30;;;;;;5032829;28;20373;-57
2022/09/26 01:40:10;;;;;;;7.18;2.05;;;19.70;71.40;;;;;;5032466;28;20036;-57
2022/09/26 01:42:49;;;;;;;6.15;2.20;;;19.80;71.40;;;;;;5048684;28;20455;-56
2022/09/26 01:45:18;;;;;;;5.50;2.10;;;19.80;71.50;;;;;;5048865;28;20037;-56
2022/09/26 01:48:15;;;;;;;5.90;2.17;;;19.80;71.50;;;;;;5065240;28;20021;-56
2022/09/26 01:50:56;;;;;;;5.25;1.65;;;19.80;71.70;;;;;;5032521;28;20059;-57
2022/09/26 01:53:51;;;;;;;6.40;1.98;;;19.80;71.90;;;;;;5048675;28;20036;-56
2022/09/26 01:56:25;;;;;;;7.65;2.33;;;19.80;71.80;;;;;;5048724;28;20254;-56
2022/09/26 01:59:00;;;;;;;7.45;1.80;;;19.80;71.80;;;;;;5053865;28;20036;-57
2022/09/26 02:01:33;;;;;;;5.75;2.00;;;19.80;71.80;;;;;;5052531;28;20029;-57
2022/09/26 02:04:10;;;;;;;8.80;2.30;;;19.80;71.80;;;;;;5068690;28;20036;-56
2022/09/26 02:07:01;;;;;;;7.90;2.30;;;19.80;71.60;;;;;;5052270;28;20391;-56
2022/09/26 02:09:58;;;;;;;6.70;1.92;;;19.80;71.70;;;;;;5047287;28;20029;-56
2022/09/26 02:12:49;;;;;;;8.85;2.35;;;19.80;71.60;;;;;;5079224;28;20045;-56
2022/09/26 02:15:24;;;;;;;6.33;2.20;;;19.80;71.60;;;;;;5049357;28;20384;-56
2022/09/26 02:18:08;;;;;;;6.05;2.13;;;19.80;71.70;;;;;;5052487;28;20033;-56
2022/09/26 02:20:39;;;;;;;6.53;1.98;;;19.80;71.80;;;;;;5052415;28;20475;-56
2022/09/26 02:23:09;;;;;;;5.70;2.03;;;19.80;71.80;;;;;;5052296;28;20048;-56
2022/09/26 02:25:38;;;;;;;5.70;2.05;;;19.80;71.80;;;;;;5052488;28;20025;-56
2022/09/26 02:28:06;;;;;;;8.52;2.42;;;19.80;71.90;;;;;;5068538;28;20360;-56
2022/09/26 02:30:35;;;;;;;8.68;2.67;;;19.80;71.80;;;;;;5070635;28;20211;-55
2022/09/26 02:33:04;;;;;;;10.93;2.30;;;19.80;71.70;;;;;;5073578;28;20028;-57
2022/09/26 02:38:22;;;;;;;5.88;2.35;;;19.80;71.70;;;;;;5071652;28;20467;-55
2022/09/26 02:41:42;;;;;;;8.00;2.33;;;19.90;71.90;;;;;;5052232;28;20507;-56
2022/09/26 02:44:52;;;;;;;5.97;1.98;;;19.90;72.00;;;;;;5023614;28;20087;-56
2022/09/26 02:47:44;;;;;;;6.18;2.15;;;19.90;72.20;;;;;;5051935;28;20064;-56
2022/09/26 02:50:13;;;;;;;;;;;19.90;72.40;;;;;;5052532;28;20025;-56
2022/09/26 02:52:55;;;;;;;6.07;2.35;;;19.90;72.40;;;;;;5068549;28;20267;-56
2022/09/26 02:55:37;;;;;;;4.65;1.95;;;19.80;72.40;;;;;;5051930;28;20412;-56
2022/09/26 02:58:22;;;;;;;5.93;2.03;;;19.80;72.40;;;;;;5051289;28;20027;-56
2022/09/26 03:01:09;;;;;;;8.75;2.30;;;19.80;72.20;;;;;;5052127;28;20506;-56
2022/09/26 03:03:44;;;;;;;7.10;2.28;;;19.80;72.20;;;;;;5035156;28;20056;-56
2022/09/26 03:06:16;;;;;;;6.95;2.10;;;19.90;72.30;;;;;;5035275;28;20051;-56
2022/09/26 03:08:48;;;;;;;5.45;1.83;;;19.90;72.30;;;;;;5054341;28;20039;-56
2022/09/26 03:11:22;;;;;;;6.22;1.92;;;19.90;72.30;;;;;;5070993;28;20109;-55
2022/09/26 03:13:53;;;;;;;7.90;2.17;;;19.90;72.30;;;;;;5070898;28;20040;-56
2022/09/26 03:16:24;;;;;;;6.70;2.45;;;19.90;72.40;;;;;;5071403;28;20066;-56
2022/09/26 03:19:03;;;;;;;5.50;1.73;;;19.90;72.40;;;;;;5067312;28;20518;-56
2022/09/26 03:21:33;;;;;;;6.32;2.03;;;19.90;72.50;;;;;;5068072;28;20033;-57
2022/09/26 03:24:01;;;;;;;7.30;2.10;;;19.90;72.60;;;;;;5052691;28;20031;-56
2022/09/26 03:26:30;;;;;;;5.03;1.80;;;19.90;72.80;;;;;;5051035;28;20029;-58
2022/09/26 03:29:02;;;;;;;7.63;2.45;;;19.90;72.80;;;;;;5054725;28;20032;-56
2022/09/26 03:31:33;;;;;;;7.40;2.63;;;19.90;72.90;;;;;;5071046;28;20044;-56
2022/09/26 03:34:05;;;;;;;5.47;2.03;;;19.90;73.00;;;;;;5071127;28;20059;-57
2022/09/26 03:36:33;;;;;;;7.10;2.00;;;19.90;73.00;;;;;;5072690;28;20032;-56
2022/09/26 03:39:03;;;;;;;5.53;1.85;;;19.90;73.20;;;;;;5065931;28;20068;-56
2022/09/26 03:41:38;;;;;;;6.82;2.10;;;19.90;73.20;;;;;;5051036;28;20025;-56
2022/09/26 03:44:13;;;;;;;5.07;1.90;;;19.90;73.40;;;;;;5050623;28;20036;-56
2022/09/26 03:46:59;;;;;;;7.25;2.00;;;19.90;73.50;;;;;;5051745;28;20091;-61
2022/09/26 03:49:28;;;;;;;7.00;2.00;;;19.90;73.60;;;;;;5058901;28;20031;-60
2022/09/26 03:51:56;;;;;;;5.72;1.90;;;19.90;73.80;;;;;;5071090;28;20040;-56
2022/09/26 03:54:25;;;;;;;6.40;2.25;;;19.90;73.90;;;;;;5071149;28;20086;-56
2022/09/26 03:56:54;;;;;;;6.63;1.98;;;19.90;74.00;;;;;;5070676;28;20494;-56
2022/09/26 03:59:22;;;;;;;4.65;1.83;;;20.00;74.10;;;;;;5063100;28;20468;-56
2022/09/26 04:01:52;;;;;;;5.25;1.77;;;20.00;74.10;;;;;;5050317;28;20401;-56
2022/09/26 04:04:20;;;;;;;5.53;2.00;;;20.00;74.10;;;;;;5050639;28;20094;-56
2022/09/26 04:06:50;;;;;;;6.22;2.13;;;20.00;74.00;;;;;;5050607;28;20025;-56
2022/09/26 04:09:18;;;;;;;5.03;1.90;;;20.00;74.00;;;;;;5056347;28;20040;-56
2022/09/26 04:11:50;;;;;;;4.55;1.95;;;20.00;74.00;;;;;;5070465;28;20102;-56
2022/09/26 04:14:19;;;;;;;5.40;2.20;;;20.00;74.10;;;;;;5069707;28;20025;-56
2022/09/26 04:16:52;;;;;;;5.50;2.00;;;20.00;74.10;;;;;;5070147;28;20032;-57
2022/09/26 04:19:28;;;;;;;5.47;1.90;;;20.10;74.30;;;;;;5063345;28;20025;-57
2022/09/26 04:21:58;;;;;;;4.72;1.75;;;20.00;74.30;;;;;;5051116;28;20048;-57
2022/09/26 04:24:26;;;;;;;4.72;1.60;;;20.00;74.30;;;;;;5050999;28;20049;-56
2022/09/26 04:26:54;;;;;;;7.85;1.90;;;20.00;74.40;;;;;;5050163;28;20021;-56
2022/09/26 04:29:22;;;;;;;5.03;1.85;;;20.00;74.40;;;;;;5055540;28;20059;-56
2022/09/26 04:32:12;;;;;;;5.05;1.75;;;20.00;74.60;;;;;;5069624;28;20036;-56
2022/09/26 04:34:58;;;;;;;5.38;2.20;;;20.00;74.60;;;;;;5070958;28;20466;-57
2022/09/26 04:37:27;;;;;;;5.60;2.00;;;20.00;74.70;;;;;;5070359;28;20087;-56
2022/09/26 04:39:56;;;;;;;5.40;1.95;;;20.00;74.70;;;;;;5066402;28;20041;-56
2022/09/26 04:42:24;;;;;;;5.65;1.90;;;20.00;74.70;;;;;;5069913;28;20455;-56
2022/09/26 04:44:52;;;;;;;4.15;1.83;;;20.00;74.70;;;;;;5069779;28;20383;-57
2022/09/26 04:47:20;;;;;;;5.38;1.85;;;20.00;74.80;;;;;;5069689;28;20028;-56
2022/09/26 04:50:17;;;;;;;6.93;2.30;;;20.00;74.80;;;;;;5030828;28;20112;-57
2022/09/26 04:53:04;;;;;;;8.10;1.83;;;20.00;75.00;;;;;;5051311;28;20095;-56
2022/09/26 04:55:34;;;;;;;;;;;20.00;75.10;;;;;;5033920;28;20036;-56
2022/09/26 04:58:02;;;;;;;4.13;1.60;;;20.00;75.00;;;;;;5049240;28;19912;-57
2022/09/26 05:00:31;;;;;;;8.32;2.15;;;20.00;75.10;;;;;;5049550;28;20026;-57
2022/09/26 05:03:04;;;;;;;6.03;2.08;;;20.00;75.20;;;;;;5064750;28;20406;-57
2022/09/26 05:05:32;;;;;;;8.90;2.20;;;20.10;75.10;;;;;;5069569;28;20036;-56
2022/09/26 05:08:00;;;;;;;5.32;1.85;;;20.10;75.10;;;;;;5052746;28;20040;-57
2022/09/26 05:10:29;;;;;;;5.57;1.75;;;20.00;75.10;;;;;;5069489;28;20527;-57
2022/09/26 05:13:02;;;;;;;3.88;1.60;;;20.00;75.10;;;;;;5054540;28;20369;-57
2022/09/26 05:15:31;;;;;;;5.72;2.15;;;20.10;75.00;;;;;;5049240;28;20063;-57
2022/09/26 05:18:00;;;;;;;7.10;2.10;;;20.00;74.90;;;;;;5049770;28;20383;-56
2022/09/26 05:20:30;;;;;;;;;;;20.10;75.00;;;;;;5066323;28;20074;-57
2022/09/26 05:23:05;;;;;;;4.93;1.87;;;20.10;75.00;;;;;;5048926;28;19908;-57
2022/09/26 05:28:26;;;;;;;4.23;2.17;;;20.10;75.10;;;;;;5069351;28;20040;-57
2022/09/26 05:30:55;;;;;;;4.65;2.00;;;20.10;75.20;;;;;;5068889;28;20309;-57
2022/09/26 05:33:24;;;;;;;5.65;2.17;;;20.10;75.20;;;;;;5070020;28;20052;-57
2022/09/26 05:35:53;;;;;;;6.18;1.98;;;20.00;75.00;;;;;;5069117;28;20147;-56
2022/09/26 05:38:22;;;;;;;4.90;1.73;;;20.10;75.60;;;;;;5059294;28;20029;-56
2022/09/26 05:40:56;;;;;;;7.30;2.45;;;20.10;75.10;;;;;;5048818;28;20186;-56
2022/09/26 05:43:29;;;;;;;4.57;2.00;;;20.10;75.00;;;;;;5048869;28;20028;-56
2022/09/26 05:46:00;;;;;;;4.30;1.70;;;20.10;75.00;;;;;;5065936;28;20048;-56
2022/09/26 05:48:35;;;;;;;5.10;1.70;;;20.10;75.10;;;;;;5034268;28;20061;-56
2022/09/26 05:51:09;;;;;;;5.32;2.30;;;20.10;75.00;;;;;;5048117;28;20476;-55
2022/09/26 05:53:41;;;;;;;5.25;2.00;;;20.10;75.10;;;;;;5062416;28;20035;-55
2022/09/26 05:56:11;;;;;;;4.53;1.58;;;20.10;75.20;;;;;;5068147;28;20020;-55
2022/09/26 05:58:57;;;;;;;5.10;1.92;;;20.10;75.20;;;;;;5069389;28;20448;-55
2022/09/26 06:01:35;;;;;;;4.40;1.77;;;20.10;75.20;;;;;;5069925;28;20390;-55
2022/09/26 06:04:16;;;;;;;5.55;1.85;;;20.10;75.20;;;;;;5068699;28;20024;-55
2022/09/26 06:07:04;;;;;;;4.90;1.75;;;20.10;75.30;;;;;;5060021;28;20033;-56
2022/09/26 06:09:32;;;;;;;4.47;1.80;;;20.10;75.40;;;;;;5048607;28;20112;-55
2022/09/26 06:12:29;;;;;;;5.90;1.70;;;20.10;75.40;;;;;;5046753;28;20052;-55
2022/09/26 06:14:57;;;;;;;6.28;1.98;;;20.10;75.40;;;;;;5048814;28;20033;-55
2022/09/26 06:17:25;;;;;;;4.72;1.60;;;20.00;75.30;;;;;;5049094;28;20064;-55
2022/09/26 06:19:54;;;;;;;6.50;1.75;;;20.10;75.40;;;;;;5054693;28;20024;-55
2022/09/26 06:22:23;;;;;;;6.15;1.80;;;20.10;75.40;;;;;;5054716;28;20078;-55
2022/09/26 06:24:52;;;;;;;4.68;1.60;;;20.10;75.50;;;;;;5048502;28;20036;-55
2022/09/26 06:27:21;;;;;;;4.63;1.50;;;20.10;75.60;;;;;;5048074;28;20486;-55
2022/09/26 06:29:49;;;;;;;3.50;1.50;;;20.10;75.60;;;;;;5048054;28;20072;-55
2022/09/26 06:32:17;;;;;;;5.38;1.67;;;20.00;75.60;;;;;;5048205;28;20041;-55
2022/09/26 06:35:03;;;;;;;5.13;1.70;;;20.00;75.60;;;;;;5050956;28;20032;-55
2022/09/26 06:38:03;;;;;;;4.53;1.65;;;20.00;75.80;;;;;;5056196;28;20033;-56
2022/09/26 06:40:32;;;;;;;5.30;1.88;;;20.00;75.90;;;;;;5048225;28;20439;-56
2022/09/26 06:43:00;;;;;;;6.18;2.10;;;20.00;75.80;;;;;;5064588;28;20036;-55
2022/09/26 06:45:49;;;;;;;4.45;1.60;;;20.00;75.80;;;;;;5049778;28;20549;-55
2022/09/26 06:48:29;;;;;;;4.80;1.67;;;20.00;75.80;;;;;;5065015;28;20507;-56
2022/09/26 06:51:20;;;;;;;5.72;1.90;;;20.00;75.90;;;;;;5053364;28;20037;-55
2022/09/26 06:53:48;;;;;;;5.88;1.70;;;20.00;75.90;;;;;;5067994;28;20024;-55
2022/09/26 06:56:20;;;;;;;5.50;1.58;;;20.00;76.10;;;;;;5068234;28;20052;-55
2022/09/26 06:58:49;;;;;;;5.60;1.50;;;20.00;76.10;;;;;;5067745;28;20115;-55
2022/09/26 07:01:20;;;;;;;4.13;1.70;;;20.00;76.10;;;;;;5068521;28;20126;-55
2022/09/26 07:03:57;;;;;;;5.13;1.75;;;20.00;76.20;;;;;;5071983;28;20039;-55
2022/09/26 07:06:50;;;;;;;3.80;1.55;;;20.00;76.30;;;;;;5059774;28;20678;-55
2022/09/26 07:09:19;;;;;;;6.90;1.95;;;20.00;76.40;;;;;;5053389;28;20029;-55
2022/09/26 07:12:00;;;;;;;5.30;1.65;;;20.00;76.40;;;;;;5071331;28;20041;-56
2022/09/26 07:14:30;;;;;;;4.60;1.70;;;20.00;76.40;;;;;;5071709;28;20025;-55
2022/09/26 07:17:04;;;;;;;5.25;1.50;;;20.00;76.30;;;;;;5071286;28;20029;-55
2022/09/26 07:19:54;;;;;;;5.65;1.85;;;20.00;76.30;;;;;;5072759;28;20090;-55
2022/09/26 07:22:42;;;;;;;5.95;1.90;;;20.00;76.30;;;;;;5051966;28;20546;-55
2022/09/26 07:25:12;;;;;;;10.05;2.17;;;20.00;76.40;;;;;;5051144;28;20079;-55
2022/09/26 07:27:41;;;;;;;4.22;1.65;;;20.00;76.30;;;;;;5050939;28;20021;-55
2022/09/26 07:30:12;;;;;;;5.18;1.83;;;20.00;76.40;;;;;;5050989;28;20029;-55
2022/09/26 07:33:04;;;;;;;5.72;1.70;;;20.00;76.40;;;;;;5051281;28;20044;-55
2022/09/26 07:35:51;;;;;;;4.60;1.50;;;20.00;76.40;;;;;;5068035;28;20432;-55
2022/09/26 07:38:21;;;;;;;4.63;1.85;;;20.00;76.40;;;;;;5050801;28;20128;-56
2022/09/26 07:40:53;;;;;;;5.90;2.00;;;20.00;76.40;;;;;;5051006;28;20080;-55
2022/09/26 07:43:22;;;;;;;7.65;2.15;;;19.90;76.30;;;;;;5050756;28;20087;-55
2022/09/26 07:52:07;;;;;;;5.38;1.70;;;19.90;76.40;;;;;;5052013;28;20057;-56
2022/09/26 07:54:45;;;;;;;7.30;2.00;;;19.90;76.50;;;;;;5050901;28;20095;-55
2022/09/26 07:57:33;;;;;;;5.40;2.05;;;19.90;76.50;;;;;;5051998;28;20508;-55
2022/09/26 08:00:11;;;;;;;4.22;1.58;;;19.90;76.60;;;;;;5064619;28;20506;-55
2022/09/26 08:02:47;;;;;;;;;;;19.90;76.70;;;;;;5070948;28;20399;-55
2022/09/26 08:05:21;;;;;;;4.57;1.80;;;20.00;76.80;;;;;;5070796;28;19908;-55
2022/09/26 08:07:51;;;;;;;4.75;1.90;;;19.90;76.90;;;;;;5050798;28;20108;-55
2022/09/26 08:10:37;;;;;;;5.20;2.03;;;19.90;76.90;;;;;;5051019;28;20036;-56
2022/09/26 08:13:22;;;;;;;5.30;1.80;;;19.90;77.00;;;;;;5049499;28;20029;-55
2022/09/26 08:16:09;;;;;;;5.80;2.20;;;19.90;77.10;;;;;;5052078;28;20115;-55
2022/09/26 08:18:43;;;;;;;4.10;1.70;;;19.90;77.10;;;;;;5050412;28;20130;-55
2022/09/26 08:21:12;;;;;;;6.90;1.70;;;19.90;77.10;;;;;;5066888;28;20068;-56
2022/09/26 08:23:40;;;;;;;7.35;2.10;;;19.90;77.10;;;;;;5068504;28;20039;-56
2022/09/26 08:26:26;;;;;;;5.35;2.00;;;19.90;77.00;;;;;;5072296;28;20048;-56
2022/09/26 08:29:11;;;;;;;4.70;2.00;;;19.90;77.10;;;;;;5069545;28;20482;-55
2022/09/26 08:31:40;;;;;;;5.93;2.05;;;19.90;77.20;;;;;;5070091;28;20085;-56
2022/09/26 08:34:09;;;;;;;6.72;1.90;;;19.90;77.20;;;;;;5065419;28;20028;-56
2022/09/26 08:36:37;;;;;;;4.40;2.03;;;19.90;77.30;;;;;;5050247;28;20033;-56
2022/09/26 08:39:05;;;;;;;7.63;2.15;;;19.90;77.30;;;;;;5063699;28;20496;-56
2022/09/26 08:42:01;;;;;;;6.47;2.30;;;19.90;77.40;;;;;;5064648;28;20043;-56
2022/09/26 08:48:42;;;;;;;5.32;2.10;;;19.90;77.70;;;;;;5070388;28;20120;-56
2022/09/26 08:51:16;;;;;;;5.65;2.88;;;19.90;77.70;;;;;;5069311;28;20403;-55
2022/09/26 08:53:57;;;;;;;5.10;2.40;;;19.90;77.80;;;;;;5071109;28;20028;-55
2022/09/26 08:56:40;;;;;;;7.45;2.33;;;19.90;77.80;;;;;;5069569;28;20391;-56
2022/09/26 08:59:20;;;;;;;7.85;2.50;;;19.90;77.90;;;;;;5069070;28;20425;-56
2022/09/26 09:01:50;;;;;;;6.68;2.67;;;19.90;78.00;;;;;;5069514;28;20422;-56
2022/09/26 09:04:58;;;;;;;5.57;2.33;;;19.90;78.10;;;;;;5069702;28;20032;-55
2022/09/26 09:07:27;;;;;;;5.60;2.40;;;19.90;78.10;;;;;;5063115;28;20045;-56
2022/09/26 09:10:17;;;;;;;6.43;2.63;;;19.90;78.20;;;;;;5049981;28;20021;-56
2022/09/26 09:13:44;;;;;;;5.55;2.40;;;20.00;78.30;;;;;;5044684;28;20037;-56
2022/09/26 09:16:28;;;;;;;5.43;2.28;;;20.00;78.50;;;;;;5049843;28;20053;-56
2022/09/26 09:19:26;;;;;;;6.20;2.17;;;19.90;78.50;;;;;;5049412;28;20112;-56
2022/09/26 09:22:49;;;;;;;6.00;2.42;;;19.90;78.50;;;;;;5063898;28;20028;-56
2022/09/26 09:25:32;;;;;;;5.68;2.33;;;19.90;78.60;;;;;;5070025;28;20531;-56
2022/09/26 09:28:27;;;;;;;6.15;2.45;;;20.00;78.70;;;;;;5069084;28;20107;-58
2022/09/26 09:30:59;;;;;;;5.97;2.22;;;19.90;78.80;;;;;;5069657;28;20067;-56
2022/09/26 09:33:51;;;;;;;5.32;2.50;;;19.90;78.80;;;;;;5070752;28;20044;-55
2022/09/26 09:37:04;;;;;;;5.35;2.15;;;19.90;78.90;;;;;;5057553;28;20044;-55
2022/09/26 09:39:55;;;;;;;6.40;2.00;;;19.90;78.90;;;;;;5051983;28;20053;-56
2022/09/26 09:42:50;;;;;;;5.43;2.30;;;19.90;79.10;;;;;;5050168;28;20033;-56
2022/09/26 09:45:28;;;;;;;8.38;2.33;;;19.90;79.20;;;;;;5048940;28;20061;-56
2022/09/26 09:47:57;;;;;;;7.80;2.20;;;19.90;79.30;;;;;;5050645;28;20506;-56
2022/09/26 09:50:45;;;;;;;7.50;2.28;;;19.90;79.40;;;;;;5049552;28;20025;-56
2022/09/26 09:53:55;;;;;;;7.50;2.30;;;19.90;79.40;;;;;;5065247;28;20033;-56
2022/09/26 09:56:36;;;;;;;8.25;2.40;;;19.90;79.40;;;;;;5068981;28;20040;-56
2022/09/26 09:59:13;;;;;;;6.50;2.38;;;19.90;79.50;;;;;;5068374;28;20032;-56
2022/09/26 10:02:18;;;;;;;5.57;2.38;;;19.90;80.20;;;;;;5069441;28;20055;-56
2022/09/26 10:05:14;;;;;;;7.10;2.60;;;19.90;79.60;;;;;;5068915;28;20025;-56
2022/09/26 10:07:46;;;;;;;5.55;2.42;;;19.90;79.70;;;;;;5068858;28;20487;-56
2022/09/26 10:10:48;;;;;;;7.90;2.67;;;19.90;79.60;;;;;;5049726;28;20033;-55
2022/09/26 10:13:42;;;;;;;7.63;2.28;;;20.00;79.70;;;;;;5049307;28;20037;-55
2022/09/26 10:17:09;;;;;;;8.82;2.53;;;19.90;79.70;;;;;;5016263;28;20045;-55
2022/09/26 10:20:33;;;;;;;7.38;2.28;;;20.00;79.60;;;;;;5027245;28;20051;-55
2022/09/26 10:23:08;;;;;;;6.22;2.30;;;19.90;79.60;;;;;;5050609;28;20028;-56
2022/09/26 10:25:37;;;;;;;5.55;2.22;;;20.00;79.60;;;;;;5068633;28;20035;-56
2022/09/26 10:28:05;;;;;;;6.05;2.00;;;20.00;79.60;;;;;;5067973;28;20017;-56
2022/09/26 10:30:48;;;;;;;5.90;2.17;;;20.00;79.60;;;;;;5068483;28;20035;-56
2022/09/26 10:33:34;;;;;;;7.40;2.17;;;20.00;79.50;;;;;;5068312;28;20036;-56
2022/09/26 10:36:18;;;;;;;7.40;2.40;;;20.00;79.50;;;;;;5068782;28;20028;-56
2022/09/26 10:41:47;;;;;;;8.05;2.50;;;20.00;79.40;;;;;;5052224;28;20053;-56
2022/09/26 10:44:34;;;;;;;10.18;2.63;;;20.00;79.50;;;;;;5051764;28;20075;-56
2022/09/26 10:47:07;;;;;;;6.85;2.30;;;20.00;79.60;;;;;;5052291;28;20025;-56
2022/09/26 10:50:02;;;;;;;5.13;2.25;;;20.00;79.70;;;;;;5053820;28;20548;-56
2022/09/26 10:53:01;;;;;;;5.82;1.92;;;20.00;79.70;;;;;;5053200;28;20514;-56
2022/09/26 10:55:55;;;;;;;9.88;2.70;;;20.00;79.70;;;;;;5068659;28;20028;-56
2022/09/26 10:58:26;;;;;;;;;;;20.00;79.70;;;;;;5071809;28;20031;-56
2022/09/26 11:00:59;;;;;;;7.05;2.33;;;19.90;79.70;;;;;;5072314;28;19912;-55
2022/09/26 11:03:50;;;;;;;5.82;2.20;;;20.00;80.00;;;;;;5071776;28;20451;-56
2022/09/26 11:06:42;;;;;;;7.57;2.45;;;20.00;80.00;;;;;;5073255;28;20040;-56
2022/09/26 11:09:26;;;;;;;5.20;2.00;;;19.90;80.00;;;;;;5061635;28;20025;-55
2022/09/26 11:12:40;;;;;;;6.82;2.10;;;20.00;80.20;;;;;;4991034;28;20074;-56
2022/09/26 11:15:13;;;;;;;6.50;2.20;;;20.00;80.30;;;;;;4975470;28;20064;-56
2022/09/26 11:17:50;;;;;;;6.25;2.58;;;20.00;80.40;;;;;;5020283;28;20037;-55
2022/09/26 11:20:59;;;;;;;6.45;2.17;;;20.00;80.40;;;;;;5071667;28;20055;-55
2022/09/26 11:23:46;;;;;;;5.53;2.10;;;20.00;80.30;;;;;;4990387;28;20125;-56
2022/09/26 11:26:55;;;;;;;6.22;2.08;;;20.00;80.40;;;;;;5050858;28;20037;-56
2022/09/26 11:29:45;;;;;;;8.75;2.22;;;20.00;80.40;;;;;;5052260;28;20465;-55
2022/09/26 11:32:42;;;;;;;4.75;1.83;;;20.00;80.40;;;;;;5051277;28;20136;-55
2022/09/26 11:35:47;;;;;;;6.30;2.15;;;20.00;80.50;;;;;;5052501;28;20040;-55
2022/09/26 11:38:38;;;;;;;6.10;2.25;;;20.00;80.40;;;;;;5056216;28;20027;-55
2022/09/26 11:41:35;;;;;;;8.07;2.50;;;20.00;80.40;;;;;;5071367;28;20040;-56
2022/09/26 11:44:41;;;;;;;5.78;2.00;;;20.00;80.50;;;;;;5070519;28;20032;-56
2022/09/26 11:47:37;;;;;;;4.90;2.10;;;20.00;80.60;;;;;;5072279;28;20402;-55
2022/09/26 11:50:51;;;;;;;7.28;2.42;;;19.90;80.60;;;;;;5070740;28;20024;-56
2022/09/26 11:53:59;;;;;;;5.63;2.13;;;20.00;80.60;;;;;;5062187;28;20040;-56
2022/09/26 11:56:46;;;;;;;7.25;2.33;;;19.90;80.70;;;;;;5051564;28;20110;-55
2022/09/26 11:59:14;;;;;;;5.78;2.10;;;19.90;80.70;;;;;;5050605;28;20021;-56
2022/09/26 12:01:54;;;;;;;4.93;2.15;;;19.90;80.60;;;;;;5052259;28;20025;-56
2022/09/26 12:04:35;;;;;;;7.38;2.10;;;19.90;80.60;;;;;;5052369;28;20021;-56
2022/09/26 12:07:16;;;;;;;6.75;2.53;;;19.90;80.60;;;;;;5052579;28;20025;-56
2022/09/26 12:10:14;;;;;;;6.40;2.15;;;20.00;80.70;;;;;;5061714;28;20029;-56
2022/09/26 12:12:42;;;;;;;6.72;2.55;;;20.00;80.70;;;;;;5050279;28;20072;-55
2022/09/26 12:15:31;;;;;;;6.28;2.50;;;20.00;80.80;;;;;;5052173;28;20048;-55
2022/09/26 12:18:46;;;;;;;6.38;2.10;;;20.00;80.80;;;;;;5052315;28;20025;-55
2022/09/26 12:21:41;;;;;;;7.90;2.42;;;20.00;80.70;;;;;;5035327;28;20033;-55
2022/09/26 12:24:30;;;;;;;6.88;1.92;;;20.00;80.80;;;;;;5057419;28;20383;-55
2022/09/26 12:27:34;;;;;;;6.10;2.00;;;20.00;80.80;;;;;;5070927;28;20130;-56
2022/09/26 12:30:03;;;;;;;6.50;2.10;;;20.00;80.80;;;;;;5068021;28;20139;-55
2022/09/26 12:32:45;;;;;;;5.70;1.85;;;20.00;81.00;;;;;;5070150;28;20132;-56
2022/09/26 12:35:17;;;;;;;7.18;2.13;;;20.00;81.00;;;;;;5070288;28;20029;-56
2022/09/26 12:38:16;;;;;;;6.00;2.00;;;20.00;81.00;;;;;;5070245;28;20510;-55
2022/09/26 12:41:01;;;;;;;9.30;2.28;;;20.00;81.00;;;;;;5066609;28;20045;-55
2022/09/26 12:43:45;;;;;;;5.82;1.90;;;20.00;81.00;;;;;;5051348;28;20538;-55
2022/09/26 12:46:28;;;;;;;6.13;2.20;;;20.00;81.00;;;;;;5051666;28;20025;-55
2022/09/26 12:49:30;;;;;;;6.35;2.20;;;20.00;81.20;;;;;;5051659;28;20112;-55
2022/09/26 12:52:18;;;;;;;6.07;2.00;;;20.00;81.20;;;;;;5050575;28;20037;-55
2022/09/26 12:54:58;;;;;;;5.97;2.00;;;20.00;81.20;;;;;;5057442;28;20017;-55
2022/09/26 12:58:00;;;;;;;9.25;2.25;;;20.00;81.10;;;;;;5069187;28;20056;-56
2022/09/26 13:00:37;;;;;;;5.82;2.05;;;20.00;81.10;;;;;;5070113;28;20388;-56
2022/09/26 13:03:34;;;;;;;6.25;2.00;;;20.00;81.10;;;;;;5069714;28;20036;-55
2022/09/26 13:06:26;;;;;;;6.72;1.85;;;20.00;81.10;;;;;;5069729;28;20059;-56
2022/09/26 13:09:17;;;;;;;6.20;2.10;;;20.00;81.10;;;;;;5070714;28;20078;-56
2022/09/26 13:12:15;;;;;;;5.10;1.90;;;20.00;81.10;;;;;;5062575;28;20040;-56
2022/09/26 13:14:50;;;;;;;5.43;1.83;;;20.00;81.10;;;;;;5049794;28;20028;-56
2022/09/26 13:17:27;;;;;;;8.23;2.20;;;20.00;81.10;;;;;;5050717;28;20029;-56
2022/09/26 13:20:18;;;;;;;4.50;2.00;;;20.00;81.20;;;;;;5066418;28;20042;-55
2022/09/26 13:22:57;;;;;;;4.37;1.67;;;20.00;81.10;;;;;;5050559;28;20043;-55
2022/09/26 13:25:43;;;;;;;5.55;2.08;;;20.00;81.10;;;;;;5051339;28;20025;-56
2022/09/26 13:28:20;;;;;;;5.30;2.15;;;20.00;81.10;;;;;;5058050;28;20169;-56
2022/09/26 13:30:56;;;;;;;6.25;2.05;;;20.00;81.10;;;;;;5069160;28;20459;-56
2022/09/26 13:33:28;;;;;;;5.47;2.00;;;20.00;81.10;;;;;;5069194;28;20044;-55
2022/09/26 13:35:58;;;;;;;6.57;2.03;;;20.00;81.10;;;;;;5071254;28;20111;-56
2022/09/26 13:38:52;;;;;;;6.40;2.10;;;20.00;81.10;;;;;;5069776;28;20042;-56
2022/09/26 13:41:31;;;;;;;6.22;2.00;;;20.00;81.10;;;;;;5069446;28;20223;-55
2022/09/26 13:44:21;;;;;;;7.35;2.13;;;20.00;81.10;;;;;;5032542;28;20039;-55
2022/09/26 13:47:18;;;;;;;7.03;2.08;;;20.00;81.10;;;;;;5050829;28;20344;-55
2022/09/26 13:50:23;;;;;;;7.70;2.30;;;20.00;81.20;;;;;;5033772;28;20037;-55
2022/09/26 13:53:20;;;;;;;5.03;2.00;;;20.00;81.10;;;;;;5070381;28;20028;-55
2022/09/26 13:56:30;;;;;;;7.63;2.20;;;20.00;81.10;;;;;;5070537;28;20042;-56
2022/09/26 13:59:14;;;;;;;10.70;2.28;;;20.00;81.10;;;;;;5035204;28;20491;-55
2022/09/26 14:02:17;;;;;;;8.23;2.30;;;20.00;81.10;;;;;;5049210;28;20107;-56
2022/09/26 14:04:50;;;;;;;5.25;2.03;;;20.00;81.20;;;;;;5048970;28;20025;-56
2022/09/26 14:10:51;;;;;;;6.25;2.25;;;20.00;81.20;;;;;;5050122;28;20407;-56
2022/09/26 14:13:36;;;;;;;6.95;2.00;;;20.00;81.20;;;;;;5061028;28;20113;-56
2022/09/26 14:16:38;;;;;;;7.18;2.03;;;20.00;81.20;;;;;;5074557;28;20028;-56
2022/09/26 14:19:28;;;;;;;7.07;2.10;;;20.00;81.30;;;;;;5029810;28;20047;-55